CDT,Max TemperatureF,Mean TemperatureF,Min TemperatureF,Max Dew PointF,MeanDew PointF,Min DewpointF,Max Humidity, Mean Humidity, Min Humidity, Max Sea Level PressureIn, Mean Sea Level PressureIn, Min Sea Level PressureIn, Max VisibilityMiles, Mean VisibilityMiles, Min VisibilityMiles, Max Wind SpeedMPH, Mean Wind SpeedMPH, Max Gust SpeedMPH,PrecipitationIn, CloudCover, Events, WindDirDegrees
2012-10-1,80,70,60,60,58,53,100,70,39,29.96,29.90,29.82,10,10,7,22,8,26,0.00,1,,331
2012-10-2,76,66,56,56,49,42,86,60,33,30.04,29.97,29.92,10,10,7,17,8,25,0.00,0,,337
2012-10-3,83,70,57,56,52,49,72,55,37,29.93,29.89,29.84,10,10,10,21,13,32,0.00,0,,164
2012-10-4,82,70,58,66,58,50,93,73,53,30.12,30.02,29.90,10,10,10,21,10,25,0.00,3,,158
2012-10-5,75,65,55,57,53,50,86,70,53,30.13,30.06,29.99,10,10,9,13,6,15,0.00,5,,1
2012-10-6,56,51,45,50,42,35,86,70,54,30.26,30.16,30.09,10,10,7,17,12,23,0.00,8,,20
2012-10-7,49,46,42,34,32,31,65,58,50,30.31,30.26,30.21,10,10,10,15,7,25,0.00,8,,32
2012-10-8,66,50,34,50,39,32,96,68,40,30.25,30.15,29.96,10,10,10,18,7,24,0.00,0,,173
2012-10-9,84,71,58,59,55,50,80,59,37,29.95,29.88,29.80,10,10,10,29,14,36,0.00,0,,186
2012-10-10,68,62,55,61,56,49,100,87,73,30.20,30.10,29.94,10,6,0,15,7,17,0.00,6,Fog,11
2012-10-11,86,74,61,68,64,61,100,76,51,30.13,30.05,29.96,10,5,0,18,8,24,0.00,6,Fog,180
2012-10-12,84,77,70,70,67,63,93,74,54,30.13,30.04,29.97,10,10,10,24,14,31,0.00,5,,158
2012-10-13,86,75,64,69,66,59,87,71,55,30.00,29.88,29.74,10,9,0,45,16,56,0.23,3,Rain,204
2012-10-14,81,68,54,57,45,40,78,51,23,30.13,30.05,29.90,10,10,10,17,8,24,0.00,0,,346
2012-10-15,81,66,51,49,46,44,83,56,28,30.12,30.04,29.92,10,10,10,15,6,21,0.00,0,,179
2012-10-16,81,72,63,60,54,45,73,59,45,29.91,29.74,29.62,10,10,10,28,17,43,0.00,0,,193
2012-10-17,85,72,58,63,50,39,93,57,20,29.80,29.65,29.57,10,10,10,24,12,33,0.00,0,,311
2012-10-18,75,62,49,41,31,23,59,37,15,30.02,29.95,29.81,10,10,10,14,4,20,0.00,0,,64
2012-10-19,79,62,44,39,35,31,70,44,17,30.06,29.96,29.84,10,10,10,16,6,28,0.00,0,,176
2012-10-20,89,73,57,64,54,37,73,56,39,29.83,29.75,29.67,10,10,10,25,13,36,0.00,0,,188
2012-10-21,91,82,72,67,64,61,79,60,41,29.79,29.74,29.71,10,10,10,26,14,33,0.00,0,,191
2012-10-22,77,71,65,68,65,61,93,79,64,30.04,29.89,29.78,10,8,1,26,12,29,0.50,4,Rain-Thunderstorm,149
2012-10-23,83,76,69,68,66,65,90,74,58,29.89,29.85,29.81,10,10,10,23,13,29,0.00,0,,178
2012-10-24,82,75,68,67,65,58,93,77,61,29.92,29.81,29.73,10,10,10,24,16,32,0.00,2,,174
2012-10-25,73,62,50,64,51,38,87,65,43,30.12,29.89,29.69,10,10,10,25,15,31,0.00,3,,9
2012-10-26,54,47,39,36,31,26,70,53,35,30.36,30.28,30.16,10,10,10,24,14,31,0.00,4,,10
2012-10-27,57,45,33,29,26,23,75,52,29,30.37,30.28,30.17,10,10,10,10,4,14,0.00,0,,21
2012-10-28,63,48,33,33,29,25,89,57,25,30.30,30.23,30.16,10,10,10,9,3,12,0.00,0,,144
2012-10-29,70,56,41,37,33,29,62,45,27,30.25,30.17,30.07,10,10,10,15,8,23,0.00,0,,159
2012-10-30,75,61,46,47,41,36,83,58,33,30.06,30.01,29.93,10,10,10,14,5,18,0.00,0,,174
2012-10-31,82,65,47,50,46,43,93,60,26,30.07,30.00,29.96,10,10,10,9,4,12,0.00,0,,203